This is the latest recevied weather packets stored in our database for station/object KY4EF. If no packets are shown the sender has not sent any weather packets the latest 10 day(s).
| Time | Temp. | Humidity | Pressure | Rain* | Wind** | Luminosity | Snow |
|---|---|---|---|---|---|---|---|
| 1777583052 | 17.78° C | 49% | 1011 hPa | 0 mm | - | 302 W/m² | - |
| 1777582749 | 17.78° C | 49% | 1011.1 hPa | 0 mm | - | 244 W/m² | - |
| 1777582139 | 18.89° C | 47% | 1011.1 hPa | 0 mm | - | 294 W/m² | - |
| 1777581536 | 20° C | 47% | 1011.4 hPa | 0 mm | - | 274 W/m² | - |
| 1777580927 | 18.33° C | 48% | 1011.3 hPa | 0 mm | - | 402 W/m² | - |
| 1777576974 | 22.22° C | 42% | 1011.1 hPa | 0 mm | - | 479 W/m² | - |
| 1777576670 | 21.11° C | 45% | 1011.5 hPa | 0 mm | - | 519 W/m² | - |
| 1777572723 | 19.44° C | 51% | 1011.5 hPa | 0 mm | - | 737 W/m² | - |
| 1777572114 | 21.67° C | 47% | 1011.3 hPa | 0 mm | - | 620 W/m² | - |
| 1777571809 | 22.78° C | 43% | 1011.3 hPa | 0 mm | - | 697 W/m² | - |
| 1777571203 | 21.67° C | 45% | 1011.5 hPa | 0 mm | - | 692 W/m² | - |
| 1777569378 | 20.56° C | 50% | 1011.7 hPa | 0 mm | - | 547 W/m² | - |
| 1777569074 | 20° C | 53% | 1011.9 hPa | 0 mm | - | 590 W/m² | - |
| 1777567558 | 20° C | 53% | 1012.2 hPa | 0 mm | - | 619 W/m² | - |
| 1777566955 | 17.78° C | 61% | 1012.2 hPa | 0 mm | - | 565 W/m² | - |
| 1777566652 | 18.89° C | 59% | 1011.9 hPa | 0 mm | - | 478 W/m² | - |
| 1777566349 | 18.33° C | 60% | 1012.3 hPa | 0 mm | - | 473 W/m² | - |
| 1777566046 | 18.33° C | 60% | 1012 hPa | 0 mm | - | 515 W/m² | - |
| 1777565742 | 18.89° C | 60% | 1011.7 hPa | 0 mm | - | 646 W/m² | - |
| 1777565438 | 17.78° C | 63% | 1011.8 hPa | 0 mm | - | 712 W/m² | - |
| 1777564526 | 20° C | 55% | 1012 hPa | 0 mm | - | 670 W/m² | - |
| 1777563314 | 18.89° C | 60% | 1011.6 hPa | 0 mm | - | 631 W/m² | - |
| 1777562706 | 19.44° C | 60% | 1011.7 hPa | 0 mm | - | 610 W/m² | - |
| 1777562406 | 20° C | 59% | 1011.9 hPa | 0 mm | - | 598 W/m² | - |
| 1777559073 | 18.33° C | 66% | 1011.7 hPa | 0 mm | - | 472 W/m² | - |
* Rain latest hour (hover to see other rain measurements)
** Current wind speed in m/s (hover to see current wind gust speed)